»·PEaware :: UAL9 YMML-KSFO

UAL9 :: YMML-KSFO

FLIGHT INFORMATION

Flight Status: Arrived
Operator:
United Airlines
More flights by this operator :: More flights under this callsign
Pilot: Scott L. (17677)
Aircraft: Unknown
(A359)
More flights by this aircraft type
Origin: YMML Melbourne Intl
Australia
Destination: KSFO San Francisco Intl
United States
More flights between these airports :: More routes between these airports
Route: DOSEL Y59 TESAT H185 ENTRA KOALA MISLY B580 BOILS/N0492F370 B580 BOYES CARRP/N0485F390 ZEGNU CEBEN R465 CUNDU/N0484F410 R465 CINNY PIRAT2
File this flight plan on PilotEdge
Remarks: RMK / SIMBRIEF
Altitude:
(Current/Filed)
35,000ft
Speed:
(Current/Filed)
493kts
Departed: 05-Oct-20 07:58 PM
Arrived: 06-Oct-20 09:09 AM
Distance/Time
Traveled:
6827nm/13:11
Distance/Time
To Go:
Arrived

Flight Plot

Page will automatically refresh every two minutes.

Flight plan parsing failed; only flown route is shown


Map Options




Map Legend


Flown Route
Filed Route
Departure Airport
Arrival Airport
Navaid (VOR, NDB)
Fix

Horizontal Profiles

Position Reports

Time Latitude Longitude Heading Altitude Ground
Speed
05-Oct-20 19:56 -37.675100 144.739999 24 7749ft 282kts
05-Oct-20 19:57 -37.602452 144.779399 18 9883ft 286kts
05-Oct-20 19:58 -37.532710 144.827733 33 11902ft 293kts
05-Oct-20 19:59 -37.466360 144.889429 31 13706ft 299kts
05-Oct-20 20:00 -37.405828 144.970624 50 14647ft 342kts
05-Oct-20 20:01 -37.347963 145.073857 50 15509ft 379kts
05-Oct-20 20:02 -37.284692 145.185732 49 16812ft 399kts
05-Oct-20 20:03 -37.220276 145.299015 48 18740ft 398kts
05-Oct-20 20:04 -37.155663 145.412145 47 20520ft 399kts
05-Oct-20 20:05 -37.090894 145.525195 46 22147ft 399kts
05-Oct-20 20:06 -37.025741 145.638374 45 23527ft 404kts
05-Oct-20 20:07 -36.959847 145.752944 43 24833ft 405kts
05-Oct-20 20:08 -36.893903 145.866776 43 25987ft 406kts
05-Oct-20 20:09 -36.827072 145.981141 42 27113ft 407kts
05-Oct-20 20:10 -36.760227 146.095647 42 28145ft 408kts
05-Oct-20 20:11 -36.693323 146.209891 42 29026ft 410kts
05-Oct-20 20:12 -36.625754 146.324950 41 29861ft 412kts
05-Oct-20 20:13 -36.557468 146.440752 41 30501ft 418kts
05-Oct-20 20:15 -36.488159 146.557960 41 31110ft 423kts
05-Oct-20 20:16 -36.417858 146.676562 41 31665ft 429kts
05-Oct-20 20:17 -36.346857 146.796245 40 32121ft 433kts
05-Oct-20 20:18 -36.274736 146.916945 41 32548ft 437kts
05-Oct-20 20:19 -36.201354 147.039141 42 32788ft 447kts
05-Oct-20 20:20 -36.126338 147.163842 42 33031ft 455kts
05-Oct-20 20:21 -36.049650 147.290872 43 33354ft 462kts
05-Oct-20 20:22 -35.972522 147.418071 43 33766ft 466kts
05-Oct-20 20:23 -35.894102 147.546953 42 34190ft 469kts
05-Oct-20 20:24 -35.815394 147.675253 42 34615ft 471kts
05-Oct-20 20:25 -35.736074 147.805033 42 34849ft 475kts
05-Oct-20 20:26 -35.656487 147.934389 42 35149ft 477kts
05-Oct-20 20:27 -35.576113 148.064513 42 35160ft 476kts
05-Oct-20 20:28 -35.496148 148.193458 42 35162ft 476kts
05-Oct-20 20:29 -35.417300 148.324808 49 35171ft 483kts
05-Oct-20 20:29 -35.359007 148.442665 50 35170ft 486kts
05-Oct-20 20:30 -35.289159 148.583504 49 35180ft 485kts
05-Oct-20 20:31 -35.218943 148.724369 49 35183ft 483kts
05-Oct-20 20:33 -35.136580 148.888629 49 35187ft 485kts
05-Oct-20 20:34 -35.065375 149.029707 50 35187ft 489kts
05-Oct-20 20:35 -34.994004 149.170802 50 35187ft 492kts
05-Oct-20 20:36 -34.921490 149.313478 50 35187ft 497kts
05-Oct-20 20:36 -34.860105 149.433289 50 35187ft 500kts
05-Oct-20 20:37 -34.786329 149.576903 50 35187ft 500kts
05-Oct-20 20:38 -34.712634 149.720553 49 35176ft 500kts
05-Oct-20 20:39 -34.638921 149.863616 49 35163ft 499kts
05-Oct-20 20:40 -34.564865 150.006464 49 35161ft 499kts
05-Oct-20 20:41 -34.490860 150.148616 49 35161ft 499kts
05-Oct-20 20:42 -34.416485 150.290941 49 35161ft 499kts
05-Oct-20 20:43 -34.342048 150.432818 49 35161ft 499kts
05-Oct-20 20:44 -34.267444 150.574423 49 35161ft 499kts
05-Oct-20 20:45 -34.192685 150.716121 49 35160ft 498kts
05-Oct-20 20:46 -34.118248 150.856546 49 35161ft 498kts
05-Oct-20 20:47 -34.043200 150.997269 49 35161ft 498kts
05-Oct-20 20:48 -33.968441 151.136831 50 35162ft 495kts
05-Oct-20 20:49 -33.889683 151.272058 45 35160ft 489kts
05-Oct-20 20:50 -33.808528 151.403398 46 35161ft 489kts
05-Oct-20 20:51 -33.728500 151.533519 46 35161ft 490kts
05-Oct-20 20:52 -33.646532 151.666467 45 35155ft 490kts
05-Oct-20 20:53 -33.565858 151.797372 45 35161ft 489kts
05-Oct-20 20:54 -33.484625 151.928169 45 35161ft 489kts
05-Oct-20 20:55 -33.403289 152.058642 45 35161ft 489kts
05-Oct-20 20:56 -33.321552 152.189290 45 35161ft 489kts
05-Oct-20 20:57 -33.239930 152.319308 45 35161ft 489kts
05-Oct-20 20:58 -33.158240 152.448966 45 35161ft 489kts
05-Oct-20 20:59 -33.076489 152.578264 45 35161ft 488kts
05-Oct-20 21:00 -32.994974 152.707024 45 35160ft 485kts
05-Oct-20 21:01 -32.913618 152.835137 45 35161ft 484kts
05-Oct-20 21:02 -32.831965 152.962303 45 35160ft 486kts
05-Oct-20 21:03 -32.749738 153.090350 46 35160ft 490kts
05-Oct-20 21:04 -32.666924 153.219195 46 35161ft 491kts
05-Oct-20 21:05 -32.583730 153.348124 46 35161ft 491kts
05-Oct-20 21:06 -32.500747 153.476273 46 35161ft 491kts
05-Oct-20 21:07 -32.417265 153.604714 46 35155ft 491kts
05-Oct-20 21:08 -32.334103 153.732667 46 35136ft 491kts
05-Oct-20 21:09 -32.250605 153.860460 46 35135ft 491kts
05-Oct-20 21:10 -32.166821 153.988076 45 35135ft 491kts
05-Oct-20 21:11 -32.083189 154.115057 45 35135ft 490kts
05-Oct-20 21:12 -31.999659 154.241438 46 35134ft 490kts
05-Oct-20 21:13 -31.915611 154.368196 45 35135ft 490kts
05-Oct-20 21:14 -31.831531 154.493969 46 35135ft 496kts
05-Oct-20 21:15 -31.744438 154.624303 46 35136ft 512kts
05-Oct-20 21:16 -31.655507 154.757637 45 35135ft 526kts
05-Oct-20 21:17 -31.563970 154.893822 46 35135ft 540kts
05-Oct-20 21:18 -31.468316 155.032199 45 35134ft 551kts
05-Oct-20 21:19 -31.367873 155.168097 45 35134ft 551kts
05-Oct-20 21:20 -31.267616 155.303509 45 35134ft 551kts
05-Oct-20 21:21 -31.167167 155.438764 45 35135ft 551kts
05-Oct-20 21:22 -31.066847 155.573369 45 35135ft 551kts
05-Oct-20 21:23 -30.966145 155.708231 45 35134ft 549kts
05-Oct-20 21:24 -30.866414 155.841268 45 35134ft 545kts
05-Oct-20 21:25 -30.766125 155.973954 45 35134ft 546kts
05-Oct-20 21:26 -30.666200 156.106141 45 35141ft 545kts
05-Oct-20 21:27 -30.566160 156.238054 45 35166ft 545kts
05-Oct-20 21:28 -30.465893 156.369815 45 35185ft 544kts
05-Oct-20 21:29 -30.365487 156.501306 45 35187ft 544kts
05-Oct-20 21:30 -30.265017 156.632459 45 35187ft 544kts
05-Oct-20 21:31 -30.165131 156.762927 45 35187ft 544kts
05-Oct-20 21:32 -30.064411 156.893682 44 35187ft 544kts
05-Oct-20 21:33 -29.963687 157.023830 45 35187ft 545kts
05-Oct-20 21:34 -29.862259 157.154209 45 35185ft 548kts
05-Oct-20 21:35 -29.760418 157.284519 46 35187ft 549kts
05-Oct-20 21:36 -29.658336 157.415183 46 35187ft 549kts
05-Oct-20 21:37 -29.555720 157.546101 46 35187ft 549kts
05-Oct-20 21:38 -29.453752 157.675848 45 35184ft 548kts
05-Oct-20 21:39 -29.351461 157.806010 45 35187ft 549kts
05-Oct-20 21:40 -29.249057 157.935413 45 35187ft 549kts
05-Oct-20 21:41 -29.146479 158.064573 45 35187ft 548kts
05-Oct-20 21:42 -29.043995 158.193124 46 35189ft 545kts
05-Oct-20 21:43 -28.942306 158.320352 47 35188ft 540kts
05-Oct-20 21:44 -28.840972 158.446443 46 35187ft 540kts
05-Oct-20 21:45 -28.739828 158.571878 47 35187ft 540kts
05-Oct-20 21:46 -28.638036 158.698270 46 35186ft 539kts
05-Oct-20 21:47 -28.536791 158.823784 46 35187ft 539kts
05-Oct-20 21:48 -28.434817 158.949401 46 35187ft 541kts
05-Oct-20 21:49 -28.332761 159.074711 47 35187ft 542kts
05-Oct-20 21:50 -28.230098 159.200477 47 35187ft 543kts
05-Oct-20 21:51 -28.127411 159.325888 47 35187ft 543kts
05-Oct-20 21:52 -28.024753 159.450845 47 35187ft 543kts
05-Oct-20 21:53 -27.921856 159.575714 47 35187ft 543kts
05-Oct-20 21:54 -27.818588 159.700326 47 35186ft 543kts
05-Oct-20 21:55 -27.715538 159.824804 47 35187ft 543kts
05-Oct-20 21:56 -27.612406 159.948857 47 35187ft 543kts
05-Oct-20 21:57 -27.509007 160.072842 47 35187ft 543kts
05-Oct-20 21:58 -27.405563 160.196523 47 35187ft 543kts
05-Oct-20 21:59 -27.301873 160.320138 47 35187ft 543kts
05-Oct-20 22:00 -27.197996 160.443622 47 35187ft 542kts
05-Oct-20 22:01 -27.094706 160.566056 47 35187ft 542kts
05-Oct-20 22:02 -26.991016 160.688732 46 35187ft 540kts
05-Oct-20 22:03 -26.887889 160.810613 47 35185ft 536kts
05-Oct-20 22:04 -26.785329 160.930529 47 35187ft 534kts
05-Oct-20 22:05 -26.682864 161.050528 48 35187ft 533kts
05-Oct-20 22:06 -26.580360 161.170391 48 35187ft 533kts
05-Oct-20 22:07 -26.477881 161.289825 48 35187ft 532kts
05-Oct-20 22:08 -26.374599 161.409837 48 35187ft 538kts
05-Oct-20 22:09 -26.271177 161.529741 48 35187ft 537kts
05-Oct-20 22:10 -26.167343 161.649762 48 35175ft 537kts
05-Oct-20 22:11 -26.063834 161.769579 48 35057ft 537kts
05-Oct-20 22:12 -25.960150 161.888832 48 34956ft 538kts
05-Oct-20 22:13 -25.855775 162.008220 48 34942ft 538kts
05-Oct-20 22:14 -25.751279 162.127282 48 34943ft 538kts
05-Oct-20 22:15 -25.647301 162.245829 48 34942ft 538kts
05-Oct-20 22:16 -25.542879 162.364589 48 34942ft 538kts
05-Oct-20 22:17 -25.438399 162.483100 48 34943ft 538kts
05-Oct-20 22:18 -25.334057 162.601162 48 34943ft 538kts
05-Oct-20 22:20 -25.229371 162.719614 47 34942ft 538kts
05-Oct-20 22:21 -25.125090 162.837119 47 34943ft 538kts
05-Oct-20 22:22 -25.020582 162.954327 48 34945ft 531kts
05-Oct-20 22:23 -24.918073 163.069033 48 34944ft 524kts
05-Oct-20 22:24 -24.815558 163.182823 48 34943ft 522kts
05-Oct-20 22:25 -24.713740 163.295844 48 34942ft 521kts
05-Oct-20 22:26 -24.611466 163.409266 48 34942ft 521kts
05-Oct-20 22:27 -24.509567 163.521986 48 34942ft 521kts
05-Oct-20 22:28 -24.407186 163.634981 48 34942ft 521kts
05-Oct-20 22:29 -24.305339 163.747550 48 34943ft 520kts
05-Oct-20 22:30 -24.203217 163.859852 47 34943ft 521kts
05-Oct-20 22:31 -24.100969 163.971864 47 34942ft 520kts
05-Oct-20 22:32 -23.998390 164.083991 47 34943ft 521kts
05-Oct-20 22:33 -23.895843 164.195804 47 34940ft 520kts
05-Oct-20 22:34 -23.793158 164.306905 47 34942ft 520kts
05-Oct-20 22:35 -23.690842 164.417842 47 34942ft 520kts
05-Oct-20 22:36 -23.588315 164.528843 47 34942ft 520kts
05-Oct-20 22:37 -23.485572 164.639823 48 34943ft 520kts
05-Oct-20 22:38 -23.382883 164.750951 47 34942ft 519kts
05-Oct-20 22:38 -23.297265 164.843143 47 34943ft 520kts
05-Oct-20 22:40 -23.177446 164.971727 47 34943ft 518kts
05-Oct-20 22:40 -23.092144 165.063045 46 34943ft 516kts
05-Oct-20 22:41 -22.989789 165.172352 46 34942ft 516kts
05-Oct-20 22:42 -22.887238 165.281581 47 34937ft 519kts
05-Oct-20 22:43 -22.784079 165.390763 47 34942ft 520kts
05-Oct-20 22:44 -22.680430 165.500696 47 34942ft 520kts
05-Oct-20 22:45 -22.577256 165.609941 47 34942ft 520kts
05-Oct-20 22:46 -22.473995 165.719388 47 34942ft 520kts
05-Oct-20 22:47 -22.370517 165.828652 47 34942ft 520kts
05-Oct-20 22:48 -22.266884 165.937662 46 34942ft 519kts
05-Oct-20 22:49 -22.163433 166.046225 47 34943ft 519kts
05-Oct-20 22:50 -22.060152 166.154373 47 34942ft 519kts
05-Oct-20 22:51 -21.953323 166.259776 42 34942ft 520kts
05-Oct-20 22:52 -21.843115 166.360234 42 34941ft 520kts
05-Oct-20 22:53 -21.732719 166.460894 43 34942ft 520kts
05-Oct-20 22:54 -21.622815 166.561252 42 34943ft 519kts
05-Oct-20 22:55 -21.513037 166.661321 42 34941ft 519kts
05-Oct-20 22:56 -21.402949 166.761974 42 34943ft 520kts
05-Oct-20 22:57 -21.292718 166.862164 41 34943ft 518kts
05-Oct-20 22:58 -21.183259 166.961364 40 34943ft 514kts
05-Oct-20 22:59 -21.074695 167.059472 40 34944ft 509kts
05-Oct-20 23:00 -20.966776 167.156760 40 34943ft 507kts
05-Oct-20 23:01 -20.859301 167.253357 40 34942ft 506kts
05-Oct-20 23:02 -20.750973 167.350344 40 34942ft 506kts
05-Oct-20 23:03 -20.643508 167.446697 40 34943ft 506kts
05-Oct-20 23:04 -20.535743 167.543167 40 34928ft 506kts
05-Oct-20 23:05 -20.428020 167.639433 40 34896ft 506kts
05-Oct-20 23:06 -20.320315 167.735975 40 34888ft 506kts
05-Oct-20 23:07 -20.212381 167.832192 39 34888ft 506kts
05-Oct-20 23:08 -20.104437 167.928119 39 34889ft 506kts
05-Oct-20 23:09 -19.996310 168.024014 39 34911ft 506kts
05-Oct-20 23:10 -19.888396 168.119522 39 34912ft 506kts
05-Oct-20 23:11 -19.780189 168.214670 39 34914ft 506kts
05-Oct-20 23:12 -19.671602 168.310369 40 34914ft 505kts
05-Oct-20 23:13 -19.563961 168.405144 39 34914ft 506kts
05-Oct-20 23:14 -19.455440 168.500509 39 34914ft 506kts
05-Oct-20 23:15 -19.347625 168.595077 39 34914ft 505kts
05-Oct-20 23:16 -19.239414 168.690055 39 34914ft 505kts
05-Oct-20 23:17 -19.131285 168.784936 39 34914ft 505kts
05-Oct-20 23:18 -19.023042 168.879426 39 34915ft 504kts
05-Oct-20 23:19 -18.915716 168.973004 38 34916ft 500kts
05-Oct-20 23:20 -18.808741 169.065660 37 34915ft 495kts
05-Oct-20 23:21 -18.702958 169.157327 37 34915ft 492kts
05-Oct-20 23:22 -18.597551 169.248636 36 34914ft 490kts
05-Oct-20 23:23 -18.492337 169.339635 36 34914ft 489kts
05-Oct-20 23:24 -18.387143 169.430496 36 34914ft 490kts
05-Oct-20 23:25 -18.282114 169.521074 36 34914ft 489kts
05-Oct-20 23:26 -18.176777 169.611766 36 34914ft 489kts
05-Oct-20 23:27 -18.071647 169.702458 36 34914ft 489kts
05-Oct-20 23:28 -17.966558 169.792937 36 34914ft 489kts
05-Oct-20 23:29 -17.861313 169.883000 36 34914ft 489kts
05-Oct-20 23:30 -17.755623 169.973104 36 34914ft 489kts
05-Oct-20 23:31 -17.650139 170.063157 36 34914ft 489kts
05-Oct-20 23:32 -17.544852 170.152941 36 34914ft 489kts
05-Oct-20 23:33 -17.439523 170.242633 36 34914ft 489kts
05-Oct-20 23:34 -17.334004 170.332352 36 34914ft 488kts
05-Oct-20 23:35 -17.228520 170.421892 36 34914ft 488kts
05-Oct-20 23:36 -17.122916 170.511410 36 34914ft 488kts
05-Oct-20 23:37 -17.017766 170.600451 36 34914ft 487kts
05-Oct-20 23:38 -16.912867 170.689319 35 34914ft 486kts
05-Oct-20 23:39 -16.807665 170.778074 35 34914ft 485kts
05-Oct-20 23:40 -16.702644 170.866477 35 34914ft 485kts
05-Oct-20 23:41 -16.597936 170.954638 34 34914ft 484kts
05-Oct-20 23:42 -16.493591 171.042338 33 34915ft 480kts
05-Oct-20 23:43 -16.390070 171.129177 33 34915ft 476kts
05-Oct-20 23:44 -16.287195 171.215276 33 34914ft 476kts
05-Oct-20 23:45 -16.184026 171.301575 33 34914ft 476kts
05-Oct-20 23:46 -16.080870 171.387757 33 34910ft 476kts
05-Oct-20 23:47 -15.977817 171.473748 33 34901ft 475kts
05-Oct-20 23:48 -15.874551 171.559719 33 34898ft 475kts
05-Oct-20 23:49 -15.771493 171.645133 33 34890ft 475kts
05-Oct-20 23:50 -15.668626 171.731086 33 34887ft 475kts
05-Oct-20 23:51 -15.565711 171.816633 32 34887ft 475kts
05-Oct-20 23:52 -15.462480 171.902201 32 34887ft 475kts
05-Oct-20 23:53 -15.359208 171.987679 32 34887ft 475kts
05-Oct-20 23:54 -15.256061 172.072944 32 34887ft 475kts
05-Oct-20 23:55 -15.153076 172.157961 32 34887ft 475kts
05-Oct-20 23:56 -15.049846 172.243059 32 34887ft 475kts
05-Oct-20 23:57 -14.946559 172.328056 33 34887ft 476kts
05-Oct-20 23:58 -14.842866 172.413108 33 34887ft 476kts
05-Oct-20 23:59 -14.739209 172.498066 33 34887ft 476kts
06-Oct-20 00:00 -14.635305 172.583285 33 34887ft 476kts
06-Oct-20 00:01 -14.531716 172.668222 33 34886ft 476kts
06-Oct-20 00:02 -14.429527 172.752339 33 34887ft 476kts
06-Oct-20 00:03 -14.324623 172.838125 33 34888ft 476kts
06-Oct-20 00:04 -14.220833 172.922826 34 34888ft 476kts
06-Oct-20 00:05 -14.117370 173.007181 34 34887ft 476kts
06-Oct-20 00:06 -14.013649 173.091662 34 34888ft 476kts
06-Oct-20 00:07 -13.910079 173.175913 34 34887ft 475kts
06-Oct-20 00:08 -13.806200 173.259960 34 34887ft 475kts
06-Oct-20 00:09 -13.702611 173.343911 34 34899ft 475kts
06-Oct-20 00:10 -13.598830 173.428018 34 34912ft 475kts
06-Oct-20 00:11 -13.494998 173.512068 34 34914ft 475kts
06-Oct-20 00:12 -13.391476 173.595786 34 34914ft 475kts
06-Oct-20 00:13 -13.287690 173.679788 34 34914ft 475kts
06-Oct-20 00:14 -13.184103 173.763784 34 34914ft 475kts
06-Oct-20 00:15 -13.080526 173.847295 34 34914ft 475kts
06-Oct-20 00:16 -12.976271 173.931166 35 34914ft 476kts
06-Oct-20 00:18 -12.877545 174.010570 35 34914ft 476kts
06-Oct-20 00:19 -12.772993 174.094236 35 34914ft 476kts
06-Oct-20 00:20 -12.669103 174.177552 35 34914ft 476kts
06-Oct-20 00:21 -12.564646 174.261298 35 34914ft 476kts
06-Oct-20 00:22 -12.460479 174.344706 35 34914ft 476kts
06-Oct-20 00:23 -12.356615 174.427782 35 34896ft 476kts
06-Oct-20 00:24 -12.252293 174.511104 35 34866ft 476kts
06-Oct-20 00:25 -12.147665 174.594603 35 34861ft 476kts
06-Oct-20 00:26 -12.043518 174.677830 35 34860ft 476kts
06-Oct-20 00:27 -11.939669 174.760972 35 34861ft 476kts
06-Oct-20 00:28 -11.835018 174.844066 35 34861ft 476kts
06-Oct-20 00:29 -11.730652 174.926863 35 34861ft 476kts
06-Oct-20 00:30 -11.626566 175.009514 35 34861ft 475kts
06-Oct-20 00:31 -11.522235 175.092297 35 34861ft 474kts
06-Oct-20 00:32 -11.418150 175.174812 35 34861ft 474kts
06-Oct-20 00:33 -11.314138 175.257195 35 34861ft 474kts
06-Oct-20 00:34 -11.209945 175.339661 35 34861ft 474kts
06-Oct-20 00:35 -11.106026 175.421810 35 34861ft 474kts
06-Oct-20 00:36 -11.002198 175.503801 35 34861ft 474kts
06-Oct-20 00:37 -10.897544 175.586350 36 34861ft 475kts
06-Oct-20 00:37 -10.810597 175.654591 36 34860ft 475kts
06-Oct-20 00:39 -10.689160 175.750714 36 34861ft 475kts
06-Oct-20 00:39 -10.602221 175.819190 36 34861ft 475kts
06-Oct-20 00:40 -10.497610 175.901455 36 34861ft 475kts
06-Oct-20 00:41 -10.393409 175.983328 36 34861ft 475kts
06-Oct-20 00:42 -10.288933 176.065348 36 34861ft 475kts
06-Oct-20 00:43 -10.184278 176.147440 36 34861ft 475kts
06-Oct-20 00:44 -10.079769 176.229369 36 34861ft 475kts
06-Oct-20 00:45 -9.975511 176.311360 36 34861ft 475kts
06-Oct-20 00:46 -9.872512 176.394623 36 34861ft 474kts
06-Oct-20 00:47 -9.769225 176.477702 37 34861ft 474kts
06-Oct-20 00:48 -9.666067 176.560852 37 34861ft 474kts
06-Oct-20 00:49 -9.562866 176.644031 37 34861ft 474kts
06-Oct-20 00:50 -9.459939 176.727404 37 34861ft 474kts
06-Oct-20 00:51 -9.356666 176.810655 36 34861ft 474kts
06-Oct-20 00:52 -9.253705 176.893451 36 34861ft 474kts
06-Oct-20 00:53 -9.150328 176.976506 37 34861ft 474kts
06-Oct-20 00:54 -9.046848 177.059537 37 34861ft 476kts
06-Oct-20 00:55 -8.943302 177.142592 38 34861ft 475kts
06-Oct-20 00:56 -8.839830 177.225345 38 34861ft 475kts
06-Oct-20 00:57 -8.736449 177.307937 38 34861ft 475kts
06-Oct-20 00:58 -8.632836 177.390846 38 34861ft 476kts
06-Oct-20 00:59 -8.530058 177.473056 38 34861ft 476kts
06-Oct-20 01:00 -8.426251 177.556029 38 34861ft 475kts
06-Oct-20 01:01 -8.322815 177.638648 38 34861ft 475kts
06-Oct-20 01:02 -8.219340 177.721690 38 34861ft 475kts
06-Oct-20 01:03 -8.115898 177.804371 38 34861ft 475kts
06-Oct-20 01:04 -8.012343 177.886935 38 34861ft 475kts
06-Oct-20 01:05 -7.908595 177.969583 38 34861ft 475kts
06-Oct-20 01:06 -7.804700 178.051920 37 34861ft 475kts
06-Oct-20 01:07 -7.701031 178.134275 38 34861ft 475kts
06-Oct-20 01:08 -7.597497 178.216571 38 34861ft 475kts
06-Oct-20 01:09 -7.493967 178.298826 38 34861ft 475kts
06-Oct-20 01:10 -7.390366 178.381104 37 34861ft 474kts
06-Oct-20 01:11 -7.286509 178.463513 37 34861ft 474kts
06-Oct-20 01:12 -7.183077 178.545543 37 34861ft 474kts
06-Oct-20 01:13 -7.079513 178.627623 37 34861ft 474kts
06-Oct-20 01:14 -6.976568 178.709553 37 34862ft 472kts
06-Oct-20 01:15 -6.873323 178.791373 38 34860ft 472kts
06-Oct-20 01:16 -6.770098 178.872752 38 34861ft 473kts
06-Oct-20 01:17 -6.666411 178.954702 38 34861ft 473kts
06-Oct-20 01:18 -6.562790 179.036595 38 34861ft 474kts
06-Oct-20 01:19 -6.459183 179.118438 38 34861ft 474kts
06-Oct-20 01:20 -6.355858 179.200016 38 34861ft 474kts
06-Oct-20 01:21 -6.252326 179.281709 38 34861ft 473kts
06-Oct-20 01:22 -6.148516 179.363581 38 34861ft 473kts
06-Oct-20 01:23 -6.045081 179.445128 38 34861ft 473kts
06-Oct-20 01:24 -5.941549 179.526703 38 34861ft 473kts
06-Oct-20 01:25 -5.837772 179.608156 38 34861ft 473kts
06-Oct-20 01:26 -5.734393 179.689553 38 34861ft 473kts
06-Oct-20 01:27 -5.631181 179.771063 38 34861ft 473kts
06-Oct-20 01:28 -5.527565 179.852585 38 34861ft 473kts
06-Oct-20 01:29 -5.424193 179.933841 38 34861ft 473kts
06-Oct-20 01:30 -5.320588 -179.984750 38 34863ft 474kts
06-Oct-20 01:31 -5.216746 -179.903149 38 34902ft 474kts
06-Oct-20 01:32 -5.113405 -179.821983 38 34912ft 473kts
06-Oct-20 01:33 -5.009788 -179.740671 38 34913ft 475kts
06-Oct-20 01:34 -4.905700 -179.659028 38 34914ft 476kts
06-Oct-20 01:35 -4.801093 -179.577405 38 34914ft 476kts
06-Oct-20 01:36 -4.696776 -179.495757 38 34914ft 476kts
06-Oct-20 01:37 -4.592667 -179.413706 38 34914ft 477kts
06-Oct-20 01:38 -4.488537 -179.332056 38 34914ft 477kts
06-Oct-20 01:39 -4.383951 -179.250182 38 34914ft 477kts
06-Oct-20 01:40 -4.279782 -179.168664 38 34914ft 477kts
06-Oct-20 01:41 -4.175459 -179.087050 38 34914ft 477kts
06-Oct-20 01:42 -4.070767 -179.005184 38 34914ft 477kts
06-Oct-20 01:43 -3.965975 -178.923267 38 34914ft 477kts
06-Oct-20 01:44 -3.861415 -178.841705 38 34914ft 477kts
06-Oct-20 01:45 -3.756765 -178.760269 38 34914ft 477kts
06-Oct-20 01:46 -3.652213 -178.678664 38 34914ft 477kts
06-Oct-20 01:47 -3.547579 -178.596978 38 34914ft 477kts
06-Oct-20 01:48 -3.443030 -178.515375 38 34914ft 478kts
06-Oct-20 01:49 -3.338462 -178.433350 38 34914ft 478kts
06-Oct-20 01:50 -3.233895 -178.351615 38 34914ft 478kts
06-Oct-20 01:51 -3.129197 -178.269952 38 34914ft 478kts
06-Oct-20 01:52 -3.024502 -178.188327 38 34914ft 478kts
06-Oct-20 01:53 -2.919675 -178.106620 38 34914ft 479kts
06-Oct-20 01:54 -2.814299 -178.024847 38 34914ft 480kts
06-Oct-20 01:55 -2.708996 -177.942955 38 34914ft 480kts
06-Oct-20 01:56 -2.604375 -177.861487 38 34914ft 480kts
06-Oct-20 01:57 -2.498551 -177.779084 38 34914ft 480kts
06-Oct-20 01:58 -2.393277 -177.697118 38 34914ft 480kts
06-Oct-20 01:59 -2.287938 -177.615135 38 34914ft 481kts
06-Oct-20 02:00 -2.182453 -177.533035 38 34914ft 480kts
06-Oct-20 02:01 -2.077256 -177.451169 38 34914ft 481kts
06-Oct-20 02:02 -1.971817 -177.369134 38 34914ft 481kts
06-Oct-20 02:03 -1.866514 -177.286938 38 34914ft 481kts
06-Oct-20 02:04 -1.761066 -177.205066 38 34914ft 481kts
06-Oct-20 02:05 -1.655593 -177.123074 38 34914ft 481kts
06-Oct-20 02:06 -1.550269 -177.041171 37 34914ft 480kts
06-Oct-20 02:07 -1.445142 -176.959450 37 34914ft 479kts
06-Oct-20 02:08 -1.340492 -176.878117 37 34914ft 477kts
06-Oct-20 02:09 -1.235583 -176.796587 37 34914ft 477kts
06-Oct-20 02:10 -1.130976 -176.715295 37 34914ft 476kts
06-Oct-20 02:11 -1.027689 -176.635016 37 34913ft 477kts
06-Oct-20 02:12 -0.921741 -176.552699 37 34914ft 479kts
06-Oct-20 02:13 -0.816636 -176.471377 37 34914ft 479kts
06-Oct-20 02:14 -0.711825 -176.390106 37 34914ft 479kts
06-Oct-20 02:15 -0.606937 -176.308367 37 34914ft 479kts
06-Oct-20 02:16 -0.501806 -176.226378 37 34914ft 479kts
06-Oct-20 02:17 -0.397018 -176.144944 37 34914ft 479kts
06-Oct-20 02:18 -0.291763 -176.063182 37 34914ft 479kts
06-Oct-20 02:20 -0.186592 -175.981498 37 34914ft 480kts
06-Oct-20 02:21 -0.081433 -175.899821 37 34914ft 480kts
06-Oct-20 02:22 0.023933 -175.817981 37 34914ft 480kts
06-Oct-20 02:23 0.129042 -175.736432 37 34914ft 480kts
06-Oct-20 02:24 0.234390 -175.654960 37 34914ft 480kts
06-Oct-20 02:25 0.339396 -175.573454 37 34914ft 480kts
06-Oct-20 02:26 0.443012 -175.492978 37 34914ft 480kts
06-Oct-20 02:27 0.550319 -175.409626 37 34914ft 480kts
06-Oct-20 02:28 0.655586 -175.327738 37 34914ft 480kts
06-Oct-20 02:29 0.760522 -175.245768 37 34914ft 481kts
06-Oct-20 02:30 0.865754 -175.163931 37 34914ft 480kts
06-Oct-20 02:31 0.970978 -175.082138 37 34915ft 478kts
06-Oct-20 02:32 1.075121 -175.001252 37 34915ft 471kts
06-Oct-20 02:33 1.177886 -174.921744 37 34914ft 468kts
06-Oct-20 02:33 1.263509 -174.855331 37 34914ft 468kts
06-Oct-20 02:35 1.383179 -174.762346 37 34912ft 468kts
06-Oct-20 02:36 1.485806 -174.682569 37 34913ft 468kts
06-Oct-20 02:36 1.571211 -174.616183 37 34913ft 468kts
06-Oct-20 02:38 1.691226 -174.522866 37 34914ft 468kts
06-Oct-20 02:38 1.776457 -174.456592 37 34914ft 468kts
06-Oct-20 02:40 1.896376 -174.363322 37 34913ft 469kts
06-Oct-20 02:40 1.981992 -174.296368 37 34913ft 468kts
06-Oct-20 02:41 2.084575 -174.216318 37 34913ft 469kts
06-Oct-20 02:43 2.204513 -174.123349 37 34914ft 470kts
06-Oct-20 02:43 2.290625 -174.056424 37 34914ft 469kts
06-Oct-20 02:44 2.393515 -173.976355 37 34913ft 469kts
06-Oct-20 02:45 2.496389 -173.896261 37 34912ft 469kts
06-Oct-20 02:46 2.599236 -173.816178 37 34912ft 469kts
06-Oct-20 02:47 2.701857 -173.736255 37 34913ft 469kts
06-Oct-20 02:48 2.805009 -173.655899 37 34913ft 469kts
06-Oct-20 02:49 2.907696 -173.575877 37 34914ft 470kts
06-Oct-20 02:50 3.010941 -173.495403 37 34913ft 473kts
06-Oct-20 02:51 3.115022 -173.414291 37 34914ft 474kts
06-Oct-20 02:52 3.219032 -173.333525 37 34914ft 474kts
06-Oct-20 02:53 3.322715 -173.252254 37 34914ft 474kts
06-Oct-20 02:54 3.426430 -173.171314 37 34914ft 474kts
06-Oct-20 02:55 3.530294 -173.090283 37 34914ft 474kts
06-Oct-20 02:56 3.634610 -173.008840 37 34913ft 476kts
06-Oct-20 02:57 3.739450 -172.927002 37 34913ft 480kts
06-Oct-20 02:58 3.844942 -172.844633 38 34914ft 481kts
06-Oct-20 02:59 3.950055 -172.762464 38 34914ft 479kts
06-Oct-20 03:00 4.045419 -172.687894 38 34914ft 479kts
06-Oct-20 03:01 4.150943 -172.605582 38 34914ft 479kts
06-Oct-20 03:02 4.256014 -172.523673 38 34914ft 479kts
06-Oct-20 03:03 4.361141 -172.441448 38 34914ft 479kts
06-Oct-20 03:04 4.466110 -172.359286 38 34914ft 479kts
06-Oct-20 03:05 4.570949 -172.276738 38 34914ft 479kts
06-Oct-20 03:06 4.676348 -172.194015 38 34914ft 480kts
06-Oct-20 03:07 4.781665 -172.111466 38 34914ft 480kts
06-Oct-20 03:08 4.887136 -172.028784 38 34914ft 480kts
06-Oct-20 03:09 4.992570 -171.946086 38 34914ft 481kts
06-Oct-20 03:10 5.098424 -171.863006 38 34914ft 484kts
06-Oct-20 03:11 5.204904 -171.779833 37 34914ft 485kts
06-Oct-20 03:12 5.311600 -171.696143 37 34914ft 485kts
06-Oct-20 03:13 5.418332 -171.612280 37 34914ft 485kts
06-Oct-20 03:14 5.524722 -171.528654 37 34914ft 485kts
06-Oct-20 03:15 5.630858 -171.445194 37 34914ft 485kts
06-Oct-20 03:16 5.737335 -171.361420 37 34914ft 485kts
06-Oct-20 03:17 5.843543 -171.277372 38 34914ft 485kts
06-Oct-20 03:18 5.949881 -171.193465 37 34914ft 485kts
06-Oct-20 03:19 6.056105 -171.109757 37 34914ft 485kts
06-Oct-20 03:20 6.162556 -171.026099 37 34914ft 485kts
06-Oct-20 03:21 6.269048 -170.942335 38 34914ft 486kts
06-Oct-20 03:22 6.375521 -170.858333 38 34914ft 486kts
06-Oct-20 03:23 6.482090 -170.774177 38 34914ft 486kts
06-Oct-20 03:24 6.588526 -170.690081 38 34914ft 486kts
06-Oct-20 03:25 6.694988 -170.605920 38 34914ft 486kts
06-Oct-20 03:26 6.801375 -170.521777 38 34914ft 486kts
06-Oct-20 03:27 6.907706 -170.437630 38 34913ft 486kts
06-Oct-20 03:28 7.014129 -170.353338 38 34913ft 487kts
06-Oct-20 03:29 7.120470 -170.268656 38 34914ft 487kts
06-Oct-20 03:30 7.227208 -170.184285 38 34914ft 486kts
06-Oct-20 03:31 7.333458 -170.100059 38 34914ft 486kts
06-Oct-20 03:32 7.440219 -170.015331 38 34914ft 486kts
06-Oct-20 03:33 7.546702 -169.930744 38 34914ft 486kts
06-Oct-20 03:34 7.651495 -169.847449 38 34914ft 486kts
06-Oct-20 03:35 7.757693 -169.762985 38 34914ft 486kts
06-Oct-20 03:36 7.863948 -169.678418 38 34913ft 486kts
06-Oct-20 03:37 7.970058 -169.593916 38 34914ft 486kts
06-Oct-20 03:38 8.076567 -169.509037 38 34914ft 486kts
06-Oct-20 03:39 8.182858 -169.424618 38 34914ft 486kts
06-Oct-20 03:40 8.288991 -169.340052 38 34913ft 485kts
06-Oct-20 03:41 8.394637 -169.255190 38 34914ft 485kts
06-Oct-20 03:42 8.500645 -169.170386 38 34914ft 485kts
06-Oct-20 03:43 8.606502 -169.085723 38 34914ft 485kts
06-Oct-20 03:44 8.712581 -169.000822 38 34914ft 485kts
06-Oct-20 03:45 8.818483 -168.915999 38 34914ft 485kts
06-Oct-20 03:46 8.924312 -168.831167 38 34914ft 485kts
06-Oct-20 03:47 9.030180 -168.746257 38 34913ft 486kts
06-Oct-20 03:48 9.136623 -168.660942 38 34913ft 489kts
06-Oct-20 03:49 9.243241 -168.575614 38 34914ft 488kts
06-Oct-20 03:50 9.349862 -168.489928 38 34914ft 488kts
06-Oct-20 03:51 9.456336 -168.404250 38 34914ft 488kts
06-Oct-20 03:52 9.562750 -168.318360 39 34914ft 488kts
06-Oct-20 03:53 9.668813 -168.232479 38 34914ft 488kts
06-Oct-20 03:54 9.775214 -168.146607 38 34914ft 488kts
06-Oct-20 03:55 9.881389 -168.060885 38 34914ft 488kts
06-Oct-20 03:56 9.987690 -167.974992 38 34914ft 488kts
06-Oct-20 03:57 10.094129 -167.888909 38 34914ft 487kts
06-Oct-20 03:58 10.200165 -167.803466 38 34914ft 488kts
06-Oct-20 03:59 10.306510 -167.717409 38 34914ft 487kts
06-Oct-20 04:00 10.412459 -167.631503 38 34914ft 487kts
06-Oct-20 04:01 10.518426 -167.545502 38 34914ft 487kts
06-Oct-20 04:02 10.623886 -167.459829 38 34914ft 487kts
06-Oct-20 04:03 10.729767 -167.373731 38 34914ft 486kts
06-Oct-20 04:04 10.835517 -167.287279 39 34914ft 486kts
06-Oct-20 04:05 10.941310 -167.200893 38 34920ft 488kts
06-Oct-20 04:06 11.047399 -167.114358 38 34966ft 490kts
06-Oct-20 04:07 11.153762 -167.027767 38 35003ft 490kts
06-Oct-20 04:08 11.260161 -166.941098 39 35012ft 488kts
06-Oct-20 04:09 11.366204 -166.854401 39 35013ft 487kts
06-Oct-20 04:10 11.472120 -166.767689 39 35013ft 487kts
06-Oct-20 04:11 11.577524 -166.681309 39 35013ft 487kts
06-Oct-20 04:12 11.683391 -166.594462 38 35014ft 487kts
06-Oct-20 04:13 11.788812 -166.507917 38 34999ft 486kts
06-Oct-20 04:14 11.894108 -166.421387 38 34995ft 486kts
06-Oct-20 04:15 11.999590 -166.334545 39 34994ft 486kts
06-Oct-20 04:16 12.104569 -166.247642 39 34994ft 486kts
06-Oct-20 04:17 12.210123 -166.160964 39 34995ft 486kts
06-Oct-20 04:18 12.315191 -166.074295 39 34995ft 486kts
06-Oct-20 04:19 12.420554 -165.987229 39 34995ft 485kts
06-Oct-20 04:20 12.525388 -165.900467 39 34995ft 485kts
06-Oct-20 04:21 12.630385 -165.813435 39 34995ft 485kts
06-Oct-20 04:22 12.731406 -165.722226 42 34995ft 485kts
06-Oct-20 04:23 12.831361 -165.629300 42 34995ft 485kts
06-Oct-20 04:25 12.931300 -165.536386 42 34995ft 485kts
06-Oct-20 04:26 13.031604 -165.443030 42 34994ft 488kts
06-Oct-20 04:27 13.133049 -165.348638 42 34992ft 494kts
06-Oct-20 04:28 13.234657 -165.253765 42 34995ft 493kts
06-Oct-20 04:29 13.336254 -165.158845 42 34994ft 493kts
06-Oct-20 04:30 13.437796 -165.063881 42 34995ft 492kts
06-Oct-20 04:31 13.538662 -164.969470 41 34996ft 490kts
06-Oct-20 04:32 13.639518 -164.874951 41 34996ft 488kts
06-Oct-20 04:33 13.739837 -164.780843 41 34995ft 488kts
06-Oct-20 04:34 13.840223 -164.686535 41 34995ft 488kts
06-Oct-20 04:35 13.940631 -164.592093 41 34995ft 488kts
06-Oct-20 04:36 14.040701 -164.497847 41 34995ft 488kts
06-Oct-20 04:37 14.140998 -164.403471 41 34995ft 487kts
06-Oct-20 04:38 14.241088 -164.309106 42 34995ft 488kts
06-Oct-20 04:39 14.341114 -164.214225 42 34995ft 488kts
06-Oct-20 04:39 14.424448 -164.135327 41 34995ft 487kts
06-Oct-20 04:41 14.541086 -164.024804 41 34995ft 487kts
06-Oct-20 04:42 14.641018 -163.929983 41 34995ft 487kts
06-Oct-20 04:42 14.724268 -163.850886 41 34995ft 487kts
06-Oct-20 04:44 14.840500 -163.740317 41 34995ft 487kts
06-Oct-20 04:44 14.923719 -163.661032 41 34995ft 488kts
06-Oct-20 04:45 15.023600 -163.565746 41 34994ft 489kts
06-Oct-20 04:46 15.123779 -163.470196 41 34994ft 489kts
06-Oct-20 04:47 15.224283 -163.374543 41 34995ft 489kts
06-Oct-20 04:48 15.324026 -163.278679 41 34995ft 490kts
06-Oct-20 04:49 15.424250 -163.182385 41 34995ft 489kts
06-Oct-20 04:50 15.523876 -163.086702 41 34996ft 487kts
06-Oct-20 04:51 15.623046 -162.991353 41 34996ft 485kts
06-Oct-20 04:52 15.722230 -162.895872 41 34995ft 485kts
06-Oct-20 04:53 15.821023 -162.800623 41 34995ft 485kts
06-Oct-20 04:54 15.919832 -162.705225 41 34995ft 485kts
06-Oct-20 04:55 16.018647 -162.609685 41 34995ft 485kts
06-Oct-20 04:56 16.116412 -162.515070 41 34995ft 485kts
06-Oct-20 04:57 16.216307 -162.418682 41 34995ft 484kts
06-Oct-20 04:58 16.314778 -162.323003 41 34994ft 484kts
06-Oct-20 04:59 16.413106 -162.226948 41 34995ft 484kts
06-Oct-20 05:00 16.511340 -162.131233 41 34995ft 484kts
06-Oct-20 05:01 16.610078 -162.034943 41 34995ft 484kts
06-Oct-20 05:02 16.708437 -161.938881 41 34995ft 484kts
06-Oct-20 05:03 16.806434 -161.843022 41 34995ft 484kts
06-Oct-20 05:04 16.904837 -161.746625 41 34995ft 484kts
06-Oct-20 05:05 17.002974 -161.650346 41 34995ft 484kts
06-Oct-20 05:06 17.101054 -161.553969 41 34995ft 484kts
06-Oct-20 05:07 17.199263 -161.457810 41 34995ft 483kts
06-Oct-20 05:08 17.297139 -161.361446 41 34995ft 483kts
06-Oct-20 05:09 17.394810 -161.264577 41 34995ft 483kts
06-Oct-20 05:10 17.492463 -161.167900 41 34995ft 482kts
06-Oct-20 05:11 17.589828 -161.071486 41 34995ft 482kts
06-Oct-20 05:12 17.687547 -160.974571 41 34996ft 482kts
06-Oct-20 05:13 17.784864 -160.877911 41 34995ft 480kts
06-Oct-20 05:14 17.881530 -160.781752 41 34989ft 479kts
06-Oct-20 05:15 17.978256 -160.685380 41 34986ft 479kts
06-Oct-20 05:16 18.075117 -160.588713 41 34986ft 479kts
06-Oct-20 05:17 18.172178 -160.492087 41 34987ft 479kts
06-Oct-20 05:18 18.268944 -160.395377 41 34992ft 479kts
06-Oct-20 05:19 18.365201 -160.298564 41 34993ft 479kts
06-Oct-20 05:20 18.461689 -160.201363 41 34992ft 478kts
06-Oct-20 05:21 18.558026 -160.104417 41 34996ft 478kts
06-Oct-20 05:22 18.654197 -160.007496 41 35001ft 478kts
06-Oct-20 05:23 18.750068 -159.910712 41 35002ft 478kts
06-Oct-20 05:24 18.846617 -159.813073 41 35002ft 478kts
06-Oct-20 05:25 18.942208 -159.716234 41 35003ft 477kts
06-Oct-20 05:26 19.038061 -159.618878 42 35002ft 476kts
06-Oct-20 05:27 19.129546 -159.517506 46 35002ft 477kts
06-Oct-20 05:28 19.218181 -159.413215 46 35002ft 477kts
06-Oct-20 05:29 19.306562 -159.308625 47 35002ft 477kts
06-Oct-20 05:30 19.394764 -159.203868 47 35002ft 476kts
06-Oct-20 05:31 19.483137 -159.099052 46 35002ft 476kts
06-Oct-20 05:32 19.571550 -158.993969 46 35002ft 476kts
06-Oct-20 05:33 19.659789 -158.888955 45 35002ft 475kts
06-Oct-20 05:34 19.747637 -158.784330 45 35002ft 474kts
06-Oct-20 05:35 19.835242 -158.679765 45 35002ft 474kts
06-Oct-20 05:36 19.923035 -158.574741 45 35002ft 474kts
06-Oct-20 05:37 20.010598 -158.469808 45 35002ft 474kts
06-Oct-20 05:38 20.097900 -158.365012 45 35002ft 474kts
06-Oct-20 05:39 20.186049 -158.259093 45 35002ft 474kts
06-Oct-20 05:40 20.273228 -158.154017 45 35002ft 474kts
06-Oct-20 05:41 20.360516 -158.048651 45 35003ft 474kts
06-Oct-20 05:42 20.447705 -157.943203 45 35004ft 474kts
06-Oct-20 05:43 20.534893 -157.837566 45 35008ft 473kts
06-Oct-20 05:44 20.622178 -157.731616 45 35011ft 473kts
06-Oct-20 05:45 20.709108 -157.625906 45 35001ft 473kts
06-Oct-20 05:46 20.795966 -157.520070 45 35017ft 472kts
06-Oct-20 05:47 20.882453 -157.414474 45 35036ft 472kts
06-Oct-20 05:48 20.968683 -157.308798 46 35026ft 472kts
06-Oct-20 05:49 21.054924 -157.202714 45 35017ft 471kts
06-Oct-20 05:50 21.141110 -157.097190 45 35014ft 468kts
06-Oct-20 05:51 21.226813 -156.992074 46 35015ft 467kts
06-Oct-20 05:52 21.312169 -156.886719 46 35015ft 467kts
06-Oct-20 05:53 21.397431 -156.781213 46 35014ft 467kts
06-Oct-20 05:54 21.480257 -156.673006 49 35015ft 468kts
06-Oct-20 05:55 21.559584 -156.562285 49 35010ft 468kts
06-Oct-20 05:56 21.639076 -156.451120 49 35006ft 467kts
06-Oct-20 05:57 21.718429 -156.339953 50 35004ft 468kts
06-Oct-20 05:58 21.795642 -156.231081 50 35005ft 467kts
06-Oct-20 05:59 21.874613 -156.119916 50 35003ft 468kts
06-Oct-20 06:00 21.953767 -156.008331 50 35003ft 467kts
06-Oct-20 06:01 22.032496 -155.897145 50 35003ft 467kts
06-Oct-20 06:02 22.111392 -155.785540 50 35003ft 467kts
06-Oct-20 06:03 22.190536 -155.673969 50 35005ft 467kts
06-Oct-20 06:04 22.269182 -155.562315 50 35002ft 467kts
06-Oct-20 06:05 22.347813 -155.450316 50 35003ft 466kts
06-Oct-20 06:06 22.426277 -155.338335 50 35000ft 466kts
06-Oct-20 06:07 22.504400 -155.226106 50 35002ft 466kts
06-Oct-20 06:08 22.582470 -155.114113 50 35003ft 467kts
06-Oct-20 06:09 22.660581 -155.001952 50 35002ft 466kts
06-Oct-20 06:10 22.738597 -154.889729 51 35003ft 466kts
06-Oct-20 06:11 22.816785 -154.776946 51 35004ft 467kts
06-Oct-20 06:12 22.894730 -154.664201 51 35003ft 467kts
06-Oct-20 06:13 22.972499 -154.551478 51 35004ft 466kts
06-Oct-20 06:14 23.050466 -154.438271 50 35003ft 466kts
06-Oct-20 06:15 23.128038 -154.325627 51 34996ft 466kts
06-Oct-20 06:16 23.205533 -154.212681 51 34995ft 466kts
06-Oct-20 06:17 23.283313 -154.099013 51 34995ft 466kts
06-Oct-20 06:18 23.361081 -153.985107 51 34995ft 466kts
06-Oct-20 06:19 23.438428 -153.871536 51 34995ft 466kts
06-Oct-20 06:20 23.515247 -153.758480 51 34995ft 466kts
06-Oct-20 06:22 23.592467 -153.644575 51 34995ft 466kts
06-Oct-20 06:23 23.669644 -153.530430 51 34995ft 466kts
06-Oct-20 06:24 23.746570 -153.416275 51 34995ft 465kts
06-Oct-20 06:25 23.820275 -153.299951 54 34995ft 466kts
06-Oct-20 06:26 23.890934 -153.181292 54 34995ft 465kts
06-Oct-20 06:27 23.961743 -153.062501 54 34995ft 465kts
06-Oct-20 06:28 24.032236 -152.944022 54 34995ft 465kts
06-Oct-20 06:29 24.102777 -152.825171 54 34995ft 465kts
06-Oct-20 06:30 24.173490 -152.706560 55 34995ft 465kts
06-Oct-20 06:31 24.244157 -152.587103 55 34995ft 465kts
06-Oct-20 06:32 24.314698 -152.467447 55 34995ft 465kts
06-Oct-20 06:33 24.384812 -152.348186 55 34995ft 464kts
06-Oct-20 06:34 24.425110 -152.279182 55 34996ft 464kts
06-Oct-20 06:35 24.441203 -152.251599 55 34997ft 464kts
06-Oct-20 06:36 24.456834 -152.224820 55 34997ft 464kts
06-Oct-20 06:37 24.472237 -152.198445 55 34998ft 464kts
06-Oct-20 06:37 24.485083 -152.176450 55 34999ft 464kts
06-Oct-20 06:39 24.589467 -151.997567 55 35001ft 464kts
06-Oct-20 06:40 24.728038 -151.759228 55 35002ft 463kts
06-Oct-20 06:40 24.843295 -151.560099 55 35002ft 463kts
06-Oct-20 06:42 25.001175 -151.285656 55 35003ft 460kts
06-Oct-20 06:42 25.058300 -151.185919 55 35004ft 457kts
06-Oct-20 06:43 25.126357 -151.067414 55 35004ft 451kts
06-Oct-20 06:45 25.204704 -150.930790 55 35002ft 451kts
06-Oct-20 06:45 25.260690 -150.832573 55 35002ft 451kts
06-Oct-20 06:46 25.327419 -150.715142 55 35002ft 451kts
06-Oct-20 06:47 25.394148 -150.597397 55 35002ft 451kts
06-Oct-20 06:48 25.460916 -150.479284 55 35002ft 451kts
06-Oct-20 06:49 25.527320 -150.361523 55 35002ft 450kts
06-Oct-20 06:50 25.593496 -150.243405 56 35002ft 451kts
06-Oct-20 06:51 25.659911 -150.124868 56 35002ft 451kts
06-Oct-20 06:52 25.726105 -150.006572 56 35002ft 450kts
06-Oct-20 06:53 25.792254 -149.888070 56 35002ft 450kts
06-Oct-20 06:54 25.858312 -149.769398 56 35002ft 450kts
06-Oct-20 06:55 25.923887 -149.651321 56 35002ft 450kts
06-Oct-20 06:56 25.989976 -149.531994 56 35002ft 450kts
06-Oct-20 06:57 26.053900 -149.416225 56 35002ft 450kts
06-Oct-20 06:58 26.118630 -149.298674 56 35002ft 450kts
06-Oct-20 06:59 26.182665 -149.182605 56 35002ft 449kts
06-Oct-20 07:00 26.249216 -149.061318 56 35002ft 449kts
06-Oct-20 07:01 26.314651 -148.941606 56 35002ft 449kts
06-Oct-20 07:02 26.379478 -148.822696 55 35002ft 446kts
06-Oct-20 07:03 26.444196 -148.703703 55 35002ft 447kts
06-Oct-20 07:04 26.508357 -148.585445 55 35002ft 446kts
06-Oct-20 07:05 26.572654 -148.466601 55 35002ft 446kts
06-Oct-20 07:06 26.636623 -148.348024 56 35002ft 446kts
06-Oct-20 07:07 26.697157 -148.235065 56 35002ft 446kts
06-Oct-20 07:08 26.759108 -148.119536 56 35002ft 446kts
06-Oct-20 07:09 26.818801 -148.008024 56 35002ft 446kts
06-Oct-20 07:10 26.882620 -147.888516 56 35002ft 446kts
06-Oct-20 07:11 26.946036 -147.769358 55 35002ft 444kts
06-Oct-20 07:12 27.009389 -147.650035 55 35002ft 443kts
06-Oct-20 07:13 27.072356 -147.531157 54 35002ft 441kts
06-Oct-20 07:14 27.135289 -147.412504 54 35002ft 441kts
06-Oct-20 07:15 27.196912 -147.295339 55 35002ft 441kts
06-Oct-20 07:16 27.259265 -147.176560 55 35002ft 441kts
06-Oct-20 07:17 27.321779 -147.057708 55 35002ft 442kts
06-Oct-20 07:18 27.384139 -146.938493 55 35002ft 441kts
06-Oct-20 07:19 27.446308 -146.819242 55 35002ft 441kts
06-Oct-20 07:20 27.508202 -146.700180 55 35002ft 441kts
06-Oct-20 07:21 27.570111 -146.580735 55 35002ft 441kts
06-Oct-20 07:22 27.631807 -146.461395 55 35002ft 441kts
06-Oct-20 07:23 27.693560 -146.341577 55 35001ft 440kts
06-Oct-20 07:24 27.754839 -146.221825 55 35002ft 440kts
06-Oct-20 07:25 27.812740 -146.108757 55 35002ft 440kts
06-Oct-20 07:26 27.874136 -145.988637 55 35002ft 440kts
06-Oct-20 07:27 27.935215 -145.868797 55 35002ft 440kts
06-Oct-20 07:28 27.996413 -145.748410 55 35002ft 440kts
06-Oct-20 07:29 28.057283 -145.628307 55 35002ft 439kts
06-Oct-20 07:30 28.117898 -145.508613 55 35003ft 439kts
06-Oct-20 07:31 28.179027 -145.388115 55 35002ft 439kts
06-Oct-20 07:32 28.239106 -145.268292 56 35002ft 439kts
06-Oct-20 07:33 28.299409 -145.147743 56 35001ft 441kts
06-Oct-20 07:34 28.360408 -145.025711 56 35001ft 445kts
06-Oct-20 07:35 28.419908 -144.906266 57 35000ft 446kts
06-Oct-20 07:36 28.471345 -144.802676 57 35002ft 446kts
06-Oct-20 07:37 28.532272 -144.679682 57 35003ft 446kts
06-Oct-20 07:38 28.593258 -144.556238 57 35001ft 446kts
06-Oct-20 07:39 28.654114 -144.432688 57 35001ft 446kts
06-Oct-20 07:40 28.708539 -144.321764 57 35002ft 446kts
06-Oct-20 07:41 28.766942 -144.201991 57 35003ft 446kts
06-Oct-20 07:42 28.824095 -144.084864 57 35001ft 445kts
06-Oct-20 07:43 28.880220 -143.969571 57 35002ft 445kts
06-Oct-20 07:44 28.936261 -143.854118 57 35002ft 446kts
06-Oct-20 07:45 28.991538 -143.740008 57 35543ft 456kts
06-Oct-20 07:46 29.048419 -143.622179 57 36275ft 466kts
06-Oct-20 07:47 29.102952 -143.508844 57 37302ft 465kts
06-Oct-20 07:48 29.161076 -143.388740 57 38306ft 465kts
06-Oct-20 07:49 29.212569 -143.281129 57 38987ft 467kts
06-Oct-20 07:50 29.292352 -143.113639 57 38998ft 466kts
06-Oct-20 07:51 29.354718 -142.982617 58 38992ft 473kts
06-Oct-20 07:52 29.418952 -142.847435 60 38996ft 489kts
06-Oct-20 07:53 29.483323 -142.710840 61 38997ft 487kts
06-Oct-20 07:54 29.547816 -142.573571 61 38998ft 487kts
06-Oct-20 07:55 29.612060 -142.436512 61 38997ft 487kts
06-Oct-20 07:56 29.676277 -142.298878 61 38997ft 487kts
06-Oct-20 07:57 29.739774 -142.162100 61 38997ft 486kts
06-Oct-20 07:58 29.842777 -141.939791 61 38999ft 487kts
06-Oct-20 07:59 30.097288 -141.385073 61 39000ft 487kts
06-Oct-20 08:00 30.350795 -140.825516 63 38996ft 496kts
06-Oct-20 08:01 30.607138 -140.249572 64 38999ft 501kts
06-Oct-20 08:02 30.860181 -139.671525 64 39032ft 501kts
06-Oct-20 08:03 31.111398 -139.088544 65 39056ft 492kts
06-Oct-20 08:04 31.358914 -138.507283 65 39063ft 500kts
06-Oct-20 08:05 31.606898 -137.913281 65 39065ft 500kts
06-Oct-20 08:06 31.852315 -137.316338 66 39064ft 500kts
06-Oct-20 08:07 32.094792 -136.716251 67 39064ft 506kts
06-Oct-20 08:08 32.338237 -136.104349 67 39065ft 507kts
06-Oct-20 08:09 32.577237 -135.492181 67 39065ft 507kts
06-Oct-20 08:10 32.669525 -135.252508 68 39063ft 506kts
06-Oct-20 08:11 32.727643 -135.100683 68 39062ft 507kts
06-Oct-20 08:12 32.787110 -134.944696 67 39062ft 508kts
06-Oct-20 08:13 32.845376 -134.791407 66 39063ft 508kts
06-Oct-20 08:14 32.903535 -134.637712 66 39063ft 508kts
06-Oct-20 08:15 33.039198 -134.276161 67 39065ft 506kts
06-Oct-20 08:16 33.265351 -133.665271 67 39073ft 499kts
06-Oct-20 08:17 33.487135 -133.055277 67 39081ft 499kts
06-Oct-20 08:18 33.706195 -132.441291 67 39085ft 500kts
06-Oct-20 08:20 33.921870 -131.824161 67 39085ft 500kts
06-Oct-20 08:21 34.135608 -131.201607 68 39082ft 500kts
06-Oct-20 08:22 34.346759 -130.574724 67 39083ft 500kts
06-Oct-20 08:23 34.553449 -129.947142 68 39084ft 500kts
06-Oct-20 08:24 34.757136 -129.316458 69 39075ft 500kts
06-Oct-20 08:25 34.956792 -128.683822 67 39064ft 494kts
06-Oct-20 08:26 35.149595 -128.061936 68 39058ft 486kts
06-Oct-20 08:27 35.335806 -127.448269 68 39058ft 486kts
06-Oct-20 08:28 35.522615 -126.816872 67 39057ft 486kts
06-Oct-20 08:29 35.705141 -126.186997 68 39056ft 486kts
06-Oct-20 08:30 35.890828 -125.632044 65 39055ft 485kts
06-Oct-20 08:31 35.942230 -125.477921 64 39055ft 485kts
06-Oct-20 08:32 35.993992 -125.323967 65 39055ft 485kts
06-Oct-20 08:33 36.045757 -125.168971 65 39056ft 485kts
06-Oct-20 08:34 36.096941 -125.015295 65 39052ft 474kts
06-Oct-20 08:35 36.144184 -124.873581 65 39051ft 417kts
06-Oct-20 08:36 36.193118 -124.748813 56 39029ft 396kts
06-Oct-20 08:37 36.257505 -124.640875 50 37606ft 385kts
06-Oct-20 08:38 36.322793 -124.538113 50 36131ft 373kts
06-Oct-20 08:39 36.385903 -124.438321 50 34644ft 362kts
06-Oct-20 08:39 36.435829 -124.359141 50 33457ft 354kts
06-Oct-20 08:40 36.497473 -124.260797 50 32017ft 342kts
06-Oct-20 08:42 36.564813 -124.153325 51 30159ft 339kts
06-Oct-20 08:42 36.615353 -124.072587 51 27598ft 371kts
06-Oct-20 08:43 36.680364 -123.968381 52 24841ft 388kts
06-Oct-20 08:44 36.745343 -123.863873 52 23046ft 376kts
06-Oct-20 08:45 36.808607 -123.761739 53 21234ft 366kts
06-Oct-20 08:46 36.870584 -123.661325 53 21070ft 366kts
06-Oct-20 08:47 36.932795 -123.560361 53 21069ft 366kts
06-Oct-20 08:48 36.991713 -123.464533 53 20294ft 336kts
06-Oct-20 08:49 37.048105 -123.372307 53 18624ft 334kts
06-Oct-20 08:50 37.104411 -123.279765 54 17018ft 330kts
06-Oct-20 08:51 37.159896 -123.188904 53 15506ft 324kts
06-Oct-20 08:52 37.204009 -123.092626 74 14043ft 315kts
06-Oct-20 08:53 37.228270 -122.988279 74 12571ft 311kts
06-Oct-20 08:54 37.252591 -122.884549 73 11148ft 306kts
06-Oct-20 08:55 37.276601 -122.782287 73 9773ft 301kts
06-Oct-20 08:56 37.299862 -122.682456 73 8438ft 295kts
06-Oct-20 08:57 37.322941 -122.583450 73 7984ft 293kts
06-Oct-20 08:58 37.345749 -122.484816 73 7988ft 293kts
06-Oct-20 08:59 37.366748 -122.393445 73 7995ft 259kts
06-Oct-20 09:00 37.386831 -122.305712 73 7999ft 259kts
06-Oct-20 09:01 37.409681 -122.219924 51 7730ft 252kts
06-Oct-20 09:02 37.454482 -122.157956 46 7192ft 226kts
06-Oct-20 09:03 37.504850 -122.119106 4 6578ft 205kts
06-Oct-20 09:04 37.535165 -122.167120 287 5501ft 195kts
06-Oct-20 09:05 37.557452 -122.230614 301 3550ft 203kts
06-Oct-20 09:06 37.586161 -122.290431 298 1729ft 189kts
06-Oct-20 09:07 37.608699 -122.344950 298 397ft 160kts
06-Oct-20 09:08 37.622755 -122.379057 298 25ft 18kts
06-Oct-20 09:09 37.625018 -122.386764 265 25ft 0kts
06-Oct-20 09:10 37.623276 -122.390304 244 25ft 13kts
06-Oct-20 09:11 37.620552 -122.392514 144 25ft 13kts
06-Oct-20 09:12 37.618627 -122.391763 208 25ft 0kts
06-Oct-20 09:13 37.618627 -122.391763 208 25ft 0kts
06-Oct-20 09:14 37.618627 -122.391763 208 25ft 0kts
06-Oct-20 09:15 37.618627 -122.391763 208 25ft 0kts
06-Oct-20 09:16 37.618627 -122.391763 208 25ft 0kts
06-Oct-20 09:17 37.618627 -122.391763 208 25ft 0kts
06-Oct-20 09:18 37.618627 -122.391763 208 25ft 0kts
06-Oct-20 09:19 37.618627 -122.391763 208 25ft 0kts
06-Oct-20 09:20 37.618627 -122.391763 208 25ft 0kts
06-Oct-20 09:21 37.618627 -122.391763 208 25ft 0kts
06-Oct-20 09:22 37.618627 -122.391763 208 25ft 0kts

Navigation Log

Ident Type
Flight plan parsing failed, navigation log unavailable